sensor_id;sensor_type;location;lat;lon;timestamp;P1;durP1;ratioP1;P2;durP2;ratioP2
40503;SDS011;42292;49.048;8.374;2022-12-18T00:03:48;81.47;;;44.10;;
40503;SDS011;42292;49.048;8.374;2022-12-18T00:06:15;84.50;;;44.22;;
40503;SDS011;42292;49.048;8.374;2022-12-18T00:08:44;86.65;;;45.30;;
40503;SDS011;42292;49.048;8.374;2022-12-18T00:11:11;83.03;;;44.27;;
40503;SDS011;42292;49.048;8.374;2022-12-18T00:13:39;86.68;;;45.15;;
40503;SDS011;42292;49.048;8.374;2022-12-18T00:16:05;83.93;;;46.58;;
40503;SDS011;42292;49.048;8.374;2022-12-18T00:18:38;89.47;;;45.38;;
40503;SDS011;42292;49.048;8.374;2022-12-18T00:21:05;82.13;;;42.80;;
40503;SDS011;42292;49.048;8.374;2022-12-18T00:23:35;95.95;;;47.15;;
40503;SDS011;42292;49.048;8.374;2022-12-18T00:26:02;85.40;;;43.90;;
40503;SDS011;42292;49.048;8.374;2022-12-18T00:28:33;85.30;;;43.15;;
40503;SDS011;42292;49.048;8.374;2022-12-18T00:33:31;74.95;;;41.20;;
40503;SDS011;42292;49.048;8.374;2022-12-18T00:36:01;72.90;;;40.10;;
40503;SDS011;42292;49.048;8.374;2022-12-18T00:38:29;77.95;;;41.95;;
40503;SDS011;42292;49.048;8.374;2022-12-18T00:40:55;75.40;;;41.80;;
40503;SDS011;42292;49.048;8.374;2022-12-18T00:43:23;73.30;;;41.67;;
40503;SDS011;42292;49.048;8.374;2022-12-18T00:45:52;67.80;;;38.90;;
40503;SDS011;42292;49.048;8.374;2022-12-18T00:48:17;67.95;;;39.22;;
40503;SDS011;42292;49.048;8.374;2022-12-18T00:50:43;68.90;;;39.70;;
40503;SDS011;42292;49.048;8.374;2022-12-18T00:53:12;71.70;;;39.80;;
40503;SDS011;42292;49.048;8.374;2022-12-18T00:55:38;68.47;;;41.25;;
40503;SDS011;42292;49.048;8.374;2022-12-18T00:58:05;68.13;;;39.70;;
40503;SDS011;42292;49.048;8.374;2022-12-18T01:00:33;80.00;;;42.72;;
40503;SDS011;42292;49.048;8.374;2022-12-18T01:02:59;71.88;;;39.78;;
40503;SDS011;42292;49.048;8.374;2022-12-18T01:05:24;70.35;;;39.97;;
40503;SDS011;42292;49.048;8.374;2022-12-18T01:07:52;75.43;;;41.63;;
40503;SDS011;42292;49.048;8.374;2022-12-18T01:10:20;71.43;;;40.97;;
40503;SDS011;42292;49.048;8.374;2022-12-18T01:12:48;76.33;;;41.80;;
40503;SDS011;42292;49.048;8.374;2022-12-18T01:15:14;68.20;;;39.20;;
40503;SDS011;42292;49.048;8.374;2022-12-18T01:17:40;61.72;;;36.30;;
40503;SDS011;42292;49.048;8.374;2022-12-18T01:20:09;60.53;;;35.77;;
40503;SDS011;42292;49.048;8.374;2022-12-18T01:22:35;64.53;;;37.53;;
40503;SDS011;42292;49.048;8.374;2022-12-18T01:25:02;62.22;;;37.05;;
40503;SDS011;42292;49.048;8.374;2022-12-18T01:27:29;65.72;;;37.58;;
40503;SDS011;42292;49.048;8.374;2022-12-18T01:29:57;69.43;;;38.47;;
40503;SDS011;42292;49.048;8.374;2022-12-18T01:32:23;69.03;;;39.17;;
40503;SDS011;42292;49.048;8.374;2022-12-18T01:34:48;69.93;;;39.60;;
40503;SDS011;42292;49.048;8.374;2022-12-18T01:37:14;68.57;;;38.23;;
40503;SDS011;42292;49.048;8.374;2022-12-18T01:39:39;65.70;;;38.25;;
40503;SDS011;42292;49.048;8.374;2022-12-18T01:42:09;68.13;;;39.37;;
40503;SDS011;42292;49.048;8.374;2022-12-18T01:55:28;67.18;;;36.83;;
40503;SDS011;42292;49.048;8.374;2022-12-18T01:57:57;65.55;;;38.83;;
40503;SDS011;42292;49.048;8.374;2022-12-18T02:00:24;64.53;;;37.97;;
40503;SDS011;42292;49.048;8.374;2022-12-18T02:02:54;63.50;;;38.38;;
40503;SDS011;42292;49.048;8.374;2022-12-18T02:05:27;63.73;;;37.00;;
40503;SDS011;42292;49.048;8.374;2022-12-18T02:18:45;64.57;;;37.33;;
40503;SDS011;42292;49.048;8.374;2022-12-18T02:23:50;65.50;;;36.70;;
40503;SDS011;42292;49.048;8.374;2022-12-18T02:28:53;64.97;;;37.33;;
40503;SDS011;42292;49.048;8.374;2022-12-18T02:31:33;68.05;;;39.05;;
40503;SDS011;42292;49.048;8.374;2022-12-18T02:34:06;68.53;;;38.63;;
40503;SDS011;42292;49.048;8.374;2022-12-18T02:36:36;65.47;;;37.70;;
40503;SDS011;42292;49.048;8.374;2022-12-18T02:39:05;62.35;;;35.95;;
40503;SDS011;42292;49.048;8.374;2022-12-18T02:41:34;65.65;;;38.33;;
40503;SDS011;42292;49.048;8.374;2022-12-18T02:44:07;65.35;;;36.97;;
40503;SDS011;42292;49.048;8.374;2022-12-18T02:46:36;57.53;;;34.83;;
40503;SDS011;42292;49.048;8.374;2022-12-18T02:49:14;62.53;;;36.00;;
40503;SDS011;42292;49.048;8.374;2022-12-18T02:51:48;66.13;;;37.78;;
40503;SDS011;42292;49.048;8.374;2022-12-18T02:54:29;65.60;;;37.70;;
40503;SDS011;42292;49.048;8.374;2022-12-18T02:57:13;64.72;;;37.13;;
40503;SDS011;42292;49.048;8.374;2022-12-18T02:59:41;67.63;;;38.90;;
40503;SDS011;42292;49.048;8.374;2022-12-18T03:02:18;65.82;;;37.13;;
40503;SDS011;42292;49.048;8.374;2022-12-18T03:07:38;65.43;;;36.58;;
40503;SDS011;42292;49.048;8.374;2022-12-18T03:10:12;59.60;;;35.60;;
40503;SDS011;42292;49.048;8.374;2022-12-18T03:12:52;63.90;;;35.88;;
40503;SDS011;42292;49.048;8.374;2022-12-18T03:15:28;59.13;;;34.90;;
40503;SDS011;42292;49.048;8.374;2022-12-18T03:17:59;66.90;;;37.88;;
40503;SDS011;42292;49.048;8.374;2022-12-18T03:20:27;67.28;;;37.83;;
40503;SDS011;42292;49.048;8.374;2022-12-18T03:22:58;69.05;;;39.78;;
40503;SDS011;42292;49.048;8.374;2022-12-18T03:25:29;69.53;;;40.47;;
40503;SDS011;42292;49.048;8.374;2022-12-18T03:27:59;69.20;;;38.85;;
40503;SDS011;42292;49.048;8.374;2022-12-18T03:30:27;76.18;;;40.97;;
40503;SDS011;42292;49.048;8.374;2022-12-18T03:35:32;79.43;;;41.28;;
40503;SDS011;42292;49.048;8.374;2022-12-18T03:38:01;75.93;;;40.75;;
40503;SDS011;42292;49.048;8.374;2022-12-18T03:46:33;77.30;;;41.05;;
40503;SDS011;42292;49.048;8.374;2022-12-18T03:49:26;70.63;;;39.63;;
40503;SDS011;42292;49.048;8.374;2022-12-18T03:54:28;76.55;;;41.95;;
40503;SDS011;42292;49.048;8.374;2022-12-18T03:56:58;68.43;;;38.90;;
40503;SDS011;42292;49.048;8.374;2022-12-18T03:59:28;71.38;;;39.70;;
40503;SDS011;42292;49.048;8.374;2022-12-18T04:01:55;70.35;;;41.33;;
40503;SDS011;42292;49.048;8.374;2022-12-18T04:04:23;69.72;;;37.83;;
40503;SDS011;42292;49.048;8.374;2022-12-18T04:06:49;69.38;;;38.03;;
40503;SDS011;42292;49.048;8.374;2022-12-18T04:09:15;72.30;;;39.45;;
40503;SDS011;42292;49.048;8.374;2022-12-18T04:11:41;69.18;;;38.03;;
40503;SDS011;42292;49.048;8.374;2022-12-18T04:14:10;66.63;;;37.85;;
40503;SDS011;42292;49.048;8.374;2022-12-18T04:16:36;67.07;;;38.00;;
40503;SDS011;42292;49.048;8.374;2022-12-18T04:19:04;64.00;;;37.20;;
40503;SDS011;42292;49.048;8.374;2022-12-18T04:21:32;63.67;;;35.63;;
40503;SDS011;42292;49.048;8.374;2022-12-18T04:23:58;65.30;;;36.53;;
40503;SDS011;42292;49.048;8.374;2022-12-18T04:26:26;68.32;;;38.08;;
40503;SDS011;42292;49.048;8.374;2022-12-18T04:28:52;69.07;;;38.65;;
40503;SDS011;42292;49.048;8.374;2022-12-18T04:31:17;64.80;;;38.40;;
40503;SDS011;42292;49.048;8.374;2022-12-18T04:33:45;65.10;;;36.92;;
40503;SDS011;42292;49.048;8.374;2022-12-18T04:36:13;67.50;;;38.00;;
40503;SDS011;42292;49.048;8.374;2022-12-18T04:38:38;70.80;;;39.30;;
40503;SDS011;42292;49.048;8.374;2022-12-18T04:41:06;70.53;;;38.13;;
40503;SDS011;42292;49.048;8.374;2022-12-18T04:43:34;63.53;;;37.13;;
40503;SDS011;42292;49.048;8.374;2022-12-18T04:46:03;59.00;;;34.73;;
40503;SDS011;42292;49.048;8.374;2022-12-18T04:48:35;62.42;;;35.65;;
40503;SDS011;42292;49.048;8.374;2022-12-18T04:51:01;66.47;;;38.33;;
40503;SDS011;42292;49.048;8.374;2022-12-18T04:53:28;68.15;;;38.88;;
40503;SDS011;42292;49.048;8.374;2022-12-18T04:58:41;69.75;;;40.22;;
40503;SDS011;42292;49.048;8.374;2022-12-18T05:01:08;77.05;;;43.60;;
40503;SDS011;42292;49.048;8.374;2022-12-18T05:03:35;75.35;;;43.42;;
40503;SDS011;42292;49.048;8.374;2022-12-18T05:06:04;80.15;;;44.33;;
40503;SDS011;42292;49.048;8.374;2022-12-18T05:08:30;75.05;;;43.10;;
40503;SDS011;42292;49.048;8.374;2022-12-18T05:11:06;77.85;;;42.45;;
40503;SDS011;42292;49.048;8.374;2022-12-18T05:13:34;80.80;;;42.83;;
40503;SDS011;42292;49.048;8.374;2022-12-18T05:16:01;81.07;;;43.03;;
40503;SDS011;42292;49.048;8.374;2022-12-18T05:18:27;80.82;;;41.95;;
40503;SDS011;42292;49.048;8.374;2022-12-18T05:20:53;84.53;;;44.75;;
40503;SDS011;42292;49.048;8.374;2022-12-18T05:23:21;88.70;;;45.47;;
40503;SDS011;42292;49.048;8.374;2022-12-18T05:25:52;88.22;;;44.35;;
40503;SDS011;42292;49.048;8.374;2022-12-18T05:28:18;89.13;;;44.65;;
40503;SDS011;42292;49.048;8.374;2022-12-18T05:30:47;82.57;;;44.58;;
40503;SDS011;42292;49.048;8.374;2022-12-18T05:33:14;86.03;;;44.75;;
40503;SDS011;42292;49.048;8.374;2022-12-18T05:35:42;78.25;;;43.15;;
40503;SDS011;42292;49.048;8.374;2022-12-18T05:38:08;85.77;;;44.20;;
40503;SDS011;42292;49.048;8.374;2022-12-18T05:40:33;87.33;;;45.37;;
40503;SDS011;42292;49.048;8.374;2022-12-18T05:43:04;89.25;;;45.30;;
40503;SDS011;42292;49.048;8.374;2022-12-18T05:45:32;90.25;;;46.03;;
40503;SDS011;42292;49.048;8.374;2022-12-18T05:48:00;92.10;;;45.28;;
40503;SDS011;42292;49.048;8.374;2022-12-18T05:50:28;92.43;;;45.83;;
40503;SDS011;42292;49.048;8.374;2022-12-18T05:52:53;92.07;;;44.60;;
40503;SDS011;42292;49.048;8.374;2022-12-18T05:55:19;104.93;;;46.50;;
40503;SDS011;42292;49.048;8.374;2022-12-18T05:57:47;96.35;;;46.92;;
40503;SDS011;42292;49.048;8.374;2022-12-18T06:00:12;99.63;;;46.63;;
40503;SDS011;42292;49.048;8.374;2022-12-18T06:02:41;107.75;;;49.53;;
40503;SDS011;42292;49.048;8.374;2022-12-18T06:05:11;116.65;;;51.88;;
40503;SDS011;42292;49.048;8.374;2022-12-18T06:07:39;123.03;;;52.47;;
40503;SDS011;42292;49.048;8.374;2022-12-18T06:10:11;113.43;;;49.55;;
40503;SDS011;42292;49.048;8.374;2022-12-18T06:12:37;109.80;;;53.42;;
40503;SDS011;42292;49.048;8.374;2022-12-18T06:15:08;118.53;;;52.15;;
40503;SDS011;42292;49.048;8.374;2022-12-18T06:17:36;112.38;;;51.47;;
40503;SDS011;42292;49.048;8.374;2022-12-18T06:20:04;117.68;;;54.63;;
40503;SDS011;42292;49.048;8.374;2022-12-18T06:22:34;118.68;;;54.97;;
40503;SDS011;42292;49.048;8.374;2022-12-18T06:25:00;110.13;;;53.05;;
40503;SDS011;42292;49.048;8.374;2022-12-18T06:27:26;105.78;;;52.08;;
40503;SDS011;42292;49.048;8.374;2022-12-18T06:29:54;103.97;;;52.28;;
40503;SDS011;42292;49.048;8.374;2022-12-18T06:32:19;105.68;;;54.83;;
40503;SDS011;42292;49.048;8.374;2022-12-18T06:34:45;101.67;;;51.23;;
40503;SDS011;42292;49.048;8.374;2022-12-18T06:37:10;104.13;;;54.13;;
40503;SDS011;42292;49.048;8.374;2022-12-18T06:39:36;99.30;;;52.50;;
40503;SDS011;42292;49.048;8.374;2022-12-18T06:42:04;104.00;;;51.87;;
40503;SDS011;42292;49.048;8.374;2022-12-18T06:44:30;92.65;;;47.63;;
40503;SDS011;42292;49.048;8.374;2022-12-18T06:46:55;93.95;;;47.67;;
40503;SDS011;42292;49.048;8.374;2022-12-18T06:49:21;96.97;;;48.00;;
40503;SDS011;42292;49.048;8.374;2022-12-18T06:51:46;99.80;;;48.53;;
40503;SDS011;42292;49.048;8.374;2022-12-18T06:54:12;92.63;;;47.00;;
40503;SDS011;42292;49.048;8.374;2022-12-18T06:56:40;100.28;;;46.35;;
40503;SDS011;42292;49.048;8.374;2022-12-18T06:59:12;103.18;;;48.10;;
40503;SDS011;42292;49.048;8.374;2022-12-18T07:01:40;100.05;;;48.22;;
40503;SDS011;42292;49.048;8.374;2022-12-18T07:04:06;99.83;;;46.07;;
40503;SDS011;42292;49.048;8.374;2022-12-18T07:06:31;93.63;;;44.67;;
40503;SDS011;42292;49.048;8.374;2022-12-18T07:08:57;85.57;;;41.60;;
40503;SDS011;42292;49.048;8.374;2022-12-18T07:11:23;90.80;;;44.37;;
40503;SDS011;42292;49.048;8.374;2022-12-18T07:13:51;90.00;;;44.28;;
40503;SDS011;42292;49.048;8.374;2022-12-18T07:16:19;90.82;;;42.38;;
40503;SDS011;42292;49.048;8.374;2022-12-18T07:18:45;91.57;;;45.33;;
40503;SDS011;42292;49.048;8.374;2022-12-18T07:21:12;99.30;;;46.10;;
40503;SDS011;42292;49.048;8.374;2022-12-18T07:23:41;88.22;;;42.00;;
40503;SDS011;42292;49.048;8.374;2022-12-18T07:26:10;84.95;;;41.33;;
40503;SDS011;42292;49.048;8.374;2022-12-18T07:28:37;81.87;;;41.00;;
40503;SDS011;42292;49.048;8.374;2022-12-18T07:31:05;84.05;;;41.92;;
40503;SDS011;42292;49.048;8.374;2022-12-18T07:33:45;77.20;;;40.47;;
40503;SDS011;42292;49.048;8.374;2022-12-18T07:36:13;78.22;;;41.58;;
40503;SDS011;42292;49.048;8.374;2022-12-18T07:38:41;80.77;;;38.63;;
40503;SDS011;42292;49.048;8.374;2022-12-18T07:41:08;75.93;;;38.73;;
40503;SDS011;42292;49.048;8.374;2022-12-18T07:43:35;76.47;;;38.55;;
40503;SDS011;42292;49.048;8.374;2022-12-18T07:46:07;73.75;;;38.10;;
40503;SDS011;42292;49.048;8.374;2022-12-18T07:48:38;78.80;;;39.45;;
40503;SDS011;42292;49.048;8.374;2022-12-18T07:51:05;76.68;;;39.03;;
40503;SDS011;42292;49.048;8.374;2022-12-18T07:53:34;78.43;;;40.83;;
40503;SDS011;42292;49.048;8.374;2022-12-18T07:56:02;80.82;;;39.67;;
40503;SDS011;42292;49.048;8.374;2022-12-18T07:58:30;79.70;;;40.53;;
40503;SDS011;42292;49.048;8.374;2022-12-18T08:01:06;75.67;;;40.40;;
40503;SDS011;42292;49.048;8.374;2022-12-18T08:03:33;78.67;;;38.87;;
40503;SDS011;42292;49.048;8.374;2022-12-18T08:06:02;77.43;;;39.50;;
40503;SDS011;42292;49.048;8.374;2022-12-18T08:08:30;75.40;;;38.53;;
40503;SDS011;42292;49.048;8.374;2022-12-18T08:10:58;78.25;;;39.92;;
40503;SDS011;42292;49.048;8.374;2022-12-18T08:13:24;74.45;;;39.13;;
40503;SDS011;42292;49.048;8.374;2022-12-18T08:15:59;76.90;;;40.95;;
40503;SDS011;42292;49.048;8.374;2022-12-18T08:18:29;72.65;;;39.22;;
40503;SDS011;42292;49.048;8.374;2022-12-18T08:21:07;77.80;;;39.97;;
40503;SDS011;42292;49.048;8.374;2022-12-18T08:23:35;82.05;;;42.83;;
40503;SDS011;42292;49.048;8.374;2022-12-18T08:26:01;84.13;;;41.03;;
40503;SDS011;42292;49.048;8.374;2022-12-18T08:28:29;74.88;;;39.95;;
40503;SDS011;42292;49.048;8.374;2022-12-18T08:30:57;79.82;;;41.88;;
40503;SDS011;42292;49.048;8.374;2022-12-18T08:33:23;85.10;;;41.13;;
40503;SDS011;42292;49.048;8.374;2022-12-18T08:35:49;82.00;;;41.00;;
40503;SDS011;42292;49.048;8.374;2022-12-18T08:38:19;84.32;;;41.30;;
40503;SDS011;42292;49.048;8.374;2022-12-18T08:40:45;84.47;;;41.50;;
40503;SDS011;42292;49.048;8.374;2022-12-18T08:43:11;86.70;;;42.45;;
40503;SDS011;42292;49.048;8.374;2022-12-18T08:45:55;79.70;;;41.08;;
40503;SDS011;42292;49.048;8.374;2022-12-18T08:48:20;81.20;;;41.07;;
40503;SDS011;42292;49.048;8.374;2022-12-18T08:50:55;83.00;;;41.47;;
40503;SDS011;42292;49.048;8.374;2022-12-18T08:53:22;74.60;;;38.47;;
40503;SDS011;42292;49.048;8.374;2022-12-18T08:55:50;76.03;;;38.40;;
40503;SDS011;42292;49.048;8.374;2022-12-18T08:58:16;83.20;;;40.57;;
40503;SDS011;42292;49.048;8.374;2022-12-18T09:00:44;75.18;;;38.30;;
40503;SDS011;42292;49.048;8.374;2022-12-18T09:03:17;76.82;;;40.95;;
40503;SDS011;42292;49.048;8.374;2022-12-18T09:05:47;72.90;;;37.30;;
40503;SDS011;42292;49.048;8.374;2022-12-18T09:08:13;72.30;;;37.47;;
40503;SDS011;42292;49.048;8.374;2022-12-18T09:10:44;72.33;;;37.67;;
40503;SDS011;42292;49.048;8.374;2022-12-18T09:13:14;72.72;;;38.33;;
40503;SDS011;42292;49.048;8.374;2022-12-18T09:15:47;66.77;;;36.23;;
40503;SDS011;42292;49.048;8.374;2022-12-18T09:18:17;72.80;;;38.55;;
40503;SDS011;42292;49.048;8.374;2022-12-18T09:20:44;72.38;;;38.40;;
40503;SDS011;42292;49.048;8.374;2022-12-18T09:23:10;77.45;;;38.85;;
40503;SDS011;42292;49.048;8.374;2022-12-18T09:25:36;74.07;;;39.25;;
40503;SDS011;42292;49.048;8.374;2022-12-18T09:28:06;77.57;;;39.55;;
40503;SDS011;42292;49.048;8.374;2022-12-18T09:30:47;70.38;;;37.35;;
40503;SDS011;42292;49.048;8.374;2022-12-18T09:33:14;74.35;;;37.90;;
40503;SDS011;42292;49.048;8.374;2022-12-18T09:35:43;78.45;;;39.03;;
40503;SDS011;42292;49.048;8.374;2022-12-18T09:38:13;70.10;;;37.33;;
40503;SDS011;42292;49.048;8.374;2022-12-18T09:40:41;72.18;;;37.92;;
40503;SDS011;42292;49.048;8.374;2022-12-18T09:43:14;68.13;;;37.38;;
40503;SDS011;42292;49.048;8.374;2022-12-18T09:45:53;70.43;;;38.58;;
40503;SDS011;42292;49.048;8.374;2022-12-18T09:48:31;66.55;;;37.67;;
40503;SDS011;42292;49.048;8.374;2022-12-18T09:51:02;66.75;;;37.15;;
40503;SDS011;42292;49.048;8.374;2022-12-18T09:53:35;69.40;;;38.38;;
40503;SDS011;42292;49.048;8.374;2022-12-18T09:56:09;66.57;;;37.63;;
40503;SDS011;42292;49.048;8.374;2022-12-18T09:58:47;56.53;;;33.63;;
40503;SDS011;42292;49.048;8.374;2022-12-18T10:01:22;63.05;;;35.80;;
40503;SDS011;42292;49.048;8.374;2022-12-18T10:03:49;61.40;;;34.97;;
40503;SDS011;42292;49.048;8.374;2022-12-18T10:17:16;70.65;;;40.00;;
40503;SDS011;42292;49.048;8.374;2022-12-18T10:20:01;71.93;;;38.60;;
40503;SDS011;42292;49.048;8.374;2022-12-18T10:22:46;75.87;;;42.50;;
40503;SDS011;42292;49.048;8.374;2022-12-18T10:28:07;80.60;;;42.50;;
40503;SDS011;42292;49.048;8.374;2022-12-18T10:30:39;81.53;;;43.92;;
40503;SDS011;42292;49.048;8.374;2022-12-18T10:33:09;75.97;;;40.75;;
40503;SDS011;42292;49.048;8.374;2022-12-18T10:35:41;80.38;;;41.88;;
40503;SDS011;42292;49.048;8.374;2022-12-18T10:38:20;77.25;;;41.53;;
40503;SDS011;42292;49.048;8.374;2022-12-18T10:41:00;68.28;;;38.75;;
40503;SDS011;42292;49.048;8.374;2022-12-18T10:43:28;70.65;;;40.50;;
40503;SDS011;42292;49.048;8.374;2022-12-18T10:48:39;72.72;;;42.10;;
40503;SDS011;42292;49.048;8.374;2022-12-18T10:51:05;70.28;;;41.05;;
40503;SDS011;42292;49.048;8.374;2022-12-18T10:53:35;68.10;;;39.55;;
40503;SDS011;42292;49.048;8.374;2022-12-18T10:56:05;67.75;;;38.85;;
40503;SDS011;42292;49.048;8.374;2022-12-18T10:58:37;71.72;;;40.15;;
40503;SDS011;42292;49.048;8.374;2022-12-18T11:01:13;72.95;;;42.58;;
40503;SDS011;42292;49.048;8.374;2022-12-18T11:03:46;71.88;;;40.67;;
40503;SDS011;42292;49.048;8.374;2022-12-18T11:06:19;69.55;;;41.53;;
40503;SDS011;42292;49.048;8.374;2022-12-18T11:09:05;64.88;;;39.45;;
40503;SDS011;42292;49.048;8.374;2022-12-18T11:11:48;70.25;;;40.13;;
40503;SDS011;42292;49.048;8.374;2022-12-18T11:16:59;62.60;;;38.22;;
40503;SDS011;42292;49.048;8.374;2022-12-18T11:19:35;64.50;;;37.67;;
40503;SDS011;42292;49.048;8.374;2022-12-18T11:22:03;60.28;;;37.30;;
40503;SDS011;42292;49.048;8.374;2022-12-18T11:24:49;61.83;;;37.72;;
40503;SDS011;42292;49.048;8.374;2022-12-18T11:27:23;58.28;;;36.72;;
40503;SDS011;42292;49.048;8.374;2022-12-18T11:29:49;58.92;;;37.05;;
40503;SDS011;42292;49.048;8.374;2022-12-18T11:37:59;50.35;;;34.75;;
40503;SDS011;42292;49.048;8.374;2022-12-18T11:40:33;48.30;;;33.08;;
40503;SDS011;42292;49.048;8.374;2022-12-18T11:48:52;56.50;;;37.70;;
40503;SDS011;42292;49.048;8.374;2022-12-18T11:51:37;60.55;;;39.20;;
40503;SDS011;42292;49.048;8.374;2022-12-18T11:54:14;54.53;;;36.70;;
40503;SDS011;42292;49.048;8.374;2022-12-18T11:56:44;54.72;;;35.92;;
40503;SDS011;42292;49.048;8.374;2022-12-18T12:02:12;52.45;;;34.58;;
40503;SDS011;42292;49.048;8.374;2022-12-18T12:16:22;60.13;;;42.85;;
40503;SDS011;42292;49.048;8.374;2022-12-18T12:19:03;55.22;;;36.00;;
40503;SDS011;42292;49.048;8.374;2022-12-18T12:32:20;54.83;;;36.05;;
40503;SDS011;42292;49.048;8.374;2022-12-18T12:40:14;55.25;;;34.60;;
40503;SDS011;42292;49.048;8.374;2022-12-18T12:42:53;56.97;;;36.70;;
40503;SDS011;42292;49.048;8.374;2022-12-18T12:45:43;63.30;;;37.58;;
40503;SDS011;42292;49.048;8.374;2022-12-18T12:48:36;61.78;;;38.70;;
40503;SDS011;42292;49.048;8.374;2022-12-18T12:53:53;58.07;;;35.67;;
40503;SDS011;42292;49.048;8.374;2022-12-18T12:56:21;58.33;;;35.97;;
40503;SDS011;42292;49.048;8.374;2022-12-18T12:59:04;60.67;;;37.75;;
40503;SDS011;42292;49.048;8.374;2022-12-18T13:04:19;55.03;;;34.83;;
40503;SDS011;42292;49.048;8.374;2022-12-18T13:06:59;55.40;;;35.30;;
40503;SDS011;42292;49.048;8.374;2022-12-18T13:09:32;55.25;;;35.42;;
40503;SDS011;42292;49.048;8.374;2022-12-18T13:12:10;63.05;;;41.40;;
40503;SDS011;42292;49.048;8.374;2022-12-18T13:15:13;56.80;;;37.83;;
40503;SDS011;42292;49.048;8.374;2022-12-18T13:18:18;54.05;;;35.90;;
40503;SDS011;42292;49.048;8.374;2022-12-18T13:20:44;65.10;;;41.28;;
40503;SDS011;42292;49.048;8.374;2022-12-18T13:23:34;61.90;;;39.55;;
40503;SDS011;42292;49.048;8.374;2022-12-18T13:36:45;55.65;;;36.38;;
40503;SDS011;42292;49.048;8.374;2022-12-18T13:41:45;53.60;;;35.35;;
40503;SDS011;42292;49.048;8.374;2022-12-18T13:44:34;52.17;;;34.70;;
40503;SDS011;42292;49.048;8.374;2022-12-18T13:47:04;59.83;;;38.58;;
40503;SDS011;42292;49.048;8.374;2022-12-18T13:49:49;58.17;;;37.28;;
40503;SDS011;42292;49.048;8.374;2022-12-18T13:52:16;61.67;;;39.15;;
40503;SDS011;42292;49.048;8.374;2022-12-18T13:54:51;59.25;;;38.83;;
40503;SDS011;42292;49.048;8.374;2022-12-18T13:57:25;62.58;;;39.45;;
40503;SDS011;42292;49.048;8.374;2022-12-18T13:59:56;63.67;;;39.05;;
40503;SDS011;42292;49.048;8.374;2022-12-18T14:02:26;60.27;;;38.13;;
40503;SDS011;42292;49.048;8.374;2022-12-18T14:04:54;62.45;;;39.72;;
40503;SDS011;42292;49.048;8.374;2022-12-18T14:07:24;61.05;;;36.40;;
40503;SDS011;42292;49.048;8.374;2022-12-18T14:12:23;59.80;;;38.30;;
40503;SDS011;42292;49.048;8.374;2022-12-18T14:15:20;64.88;;;38.97;;
40503;SDS011;42292;49.048;8.374;2022-12-18T14:20:49;63.85;;;39.55;;
40503;SDS011;42292;49.048;8.374;2022-12-18T14:25:51;63.63;;;38.47;;
40503;SDS011;42292;49.048;8.374;2022-12-18T14:28:16;67.40;;;39.93;;
40503;SDS011;42292;49.048;8.374;2022-12-18T14:30:43;63.10;;;39.83;;
40503;SDS011;42292;49.048;8.374;2022-12-18T14:33:11;67.15;;;38.78;;
40503;SDS011;42292;49.048;8.374;2022-12-18T14:35:42;73.68;;;42.42;;
40503;SDS011;42292;49.048;8.374;2022-12-18T14:38:24;76.63;;;45.28;;
40503;SDS011;42292;49.048;8.374;2022-12-18T14:40:52;73.15;;;43.13;;
40503;SDS011;42292;49.048;8.374;2022-12-18T14:43:19;74.82;;;45.15;;
40503;SDS011;42292;49.048;8.374;2022-12-18T14:45:46;75.65;;;45.30;;
40503;SDS011;42292;49.048;8.374;2022-12-18T14:48:16;75.82;;;45.63;;
40503;SDS011;42292;49.048;8.374;2022-12-18T14:50:44;72.45;;;44.80;;
40503;SDS011;42292;49.048;8.374;2022-12-18T14:53:20;75.30;;;45.33;;
40503;SDS011;42292;49.048;8.374;2022-12-18T14:55:48;74.73;;;45.37;;
40503;SDS011;42292;49.048;8.374;2022-12-18T14:58:16;70.55;;;44.25;;
40503;SDS011;42292;49.048;8.374;2022-12-18T15:00:43;76.30;;;44.10;;
40503;SDS011;42292;49.048;8.374;2022-12-18T15:03:12;79.65;;;46.28;;
40503;SDS011;42292;49.048;8.374;2022-12-18T15:05:45;75.55;;;45.90;;
40503;SDS011;42292;49.048;8.374;2022-12-18T15:08:27;85.95;;;46.63;;
40503;SDS011;42292;49.048;8.374;2022-12-18T15:11:00;82.60;;;49.17;;
40503;SDS011;42292;49.048;8.374;2022-12-18T15:13:30;78.22;;;46.97;;
40503;SDS011;42292;49.048;8.374;2022-12-18T15:15:57;80.95;;;46.63;;
40503;SDS011;42292;49.048;8.374;2022-12-18T15:18:32;77.20;;;44.70;;
40503;SDS011;42292;49.048;8.374;2022-12-18T15:21:07;77.68;;;45.03;;
40503;SDS011;42292;49.048;8.374;2022-12-18T15:26:13;80.43;;;45.45;;
40503;SDS011;42292;49.048;8.374;2022-12-18T15:28:57;76.68;;;44.85;;
40503;SDS011;42292;49.048;8.374;2022-12-18T15:31:34;87.65;;;48.63;;
40503;SDS011;42292;49.048;8.374;2022-12-18T15:34:10;82.90;;;47.42;;
40503;SDS011;42292;49.048;8.374;2022-12-18T15:36:38;83.13;;;47.40;;
40503;SDS011;42292;49.048;8.374;2022-12-18T15:39:04;83.00;;;48.23;;
40503;SDS011;42292;49.048;8.374;2022-12-18T15:41:31;76.82;;;45.53;;
40503;SDS011;42292;49.048;8.374;2022-12-18T15:44:00;82.63;;;47.47;;
40503;SDS011;42292;49.048;8.374;2022-12-18T15:46:26;83.18;;;49.33;;
40503;SDS011;42292;49.048;8.374;2022-12-18T15:48:54;83.35;;;48.20;;
40503;SDS011;42292;49.048;8.374;2022-12-18T15:54:00;90.18;;;51.08;;
40503;SDS011;42292;49.048;8.374;2022-12-18T15:56:30;91.13;;;50.53;;
40503;SDS011;42292;49.048;8.374;2022-12-18T15:59:15;87.03;;;49.17;;
40503;SDS011;42292;49.048;8.374;2022-12-18T16:01:45;85.97;;;49.38;;
40503;SDS011;42292;49.048;8.374;2022-12-18T16:04:14;79.18;;;46.85;;
40503;SDS011;42292;49.048;8.374;2022-12-18T16:06:45;78.17;;;43.63;;
40503;SDS011;42292;49.048;8.374;2022-12-18T16:09:13;84.05;;;47.03;;
40503;SDS011;42292;49.048;8.374;2022-12-18T16:11:41;84.65;;;46.80;;
40503;SDS011;42292;49.048;8.374;2022-12-18T16:16:36;91.47;;;50.95;;
40503;SDS011;42292;49.048;8.374;2022-12-18T16:19:02;81.18;;;47.58;;
40503;SDS011;42292;49.048;8.374;2022-12-18T16:21:27;85.90;;;47.07;;
40503;SDS011;42292;49.048;8.374;2022-12-18T16:23:53;82.40;;;46.90;;
40503;SDS011;42292;49.048;8.374;2022-12-18T16:26:19;84.33;;;47.30;;
40503;SDS011;42292;49.048;8.374;2022-12-18T16:28:44;80.70;;;44.83;;
40503;SDS011;42292;49.048;8.374;2022-12-18T16:31:12;73.80;;;43.00;;
40503;SDS011;42292;49.048;8.374;2022-12-18T16:33:39;79.57;;;45.72;;
40503;SDS011;42292;49.048;8.374;2022-12-18T16:36:05;77.78;;;43.80;;
40503;SDS011;42292;49.048;8.374;2022-12-18T16:38:33;75.70;;;43.85;;
40503;SDS011;42292;49.048;8.374;2022-12-18T16:41:01;84.17;;;47.83;;
40503;SDS011;42292;49.048;8.374;2022-12-18T16:43:57;83.78;;;44.67;;
40503;SDS011;42292;49.048;8.374;2022-12-18T16:46:23;85.55;;;48.75;;
40503;SDS011;42292;49.048;8.374;2022-12-18T16:48:53;87.57;;;47.50;;
40503;SDS011;42292;49.048;8.374;2022-12-18T16:51:21;94.90;;;51.17;;
40503;SDS011;42292;49.048;8.374;2022-12-18T16:53:46;90.23;;;48.23;;
40503;SDS011;42292;49.048;8.374;2022-12-18T16:56:12;90.20;;;49.35;;
40503;SDS011;42292;49.048;8.374;2022-12-18T16:58:40;89.47;;;47.93;;
40503;SDS011;42292;49.048;8.374;2022-12-18T17:01:09;88.50;;;48.38;;
40503;SDS011;42292;49.048;8.374;2022-12-18T17:03:37;90.78;;;49.35;;